Terminal Aerodrome Forecast
Issued by NWS Albany, NY

Home | Current Version | Previous Version | Text Only | Print | Product List | Glossary On
Versions: 1 2 3 4 5 6 7 8 9 10 11 12 13 14 15
779
FTUS41 KALY 221733
TAFALB
TAF
KALB 221733Z 2218/2318 35010KT P6SM SCT200
     FM230000 36003KT P6SM SCT250
     FM231300 34005KT P6SM SKC=

USA.gov is the U.S. government's official web portal to all federal, state and local government web resources and services.